Time;durP1;ratioP1;P1;durP2;ratioP2;P2;SDS_P1;SDS_P2;PMS_P1;PMS_P2;Temp;Humidity;BMP_temperature;BMP_pressure;BME280_temperature;BME280_humidity;BME280_pressure;Samples;Min_cycle;Max_cycle;Signal;HPM_P1;HPM_P2
2023/07/24 00:04:30;;;;;;;9.00;6.77;;;;;;;;;;12986635;22;20362;-90
2023/07/24 00:09:33;;;;;;;11.83;6.30;;;;;;;;;;12986218;22;20433;-89
2023/07/24 00:14:37;;;;;;;10.73;6.32;;;;;;;;;;12986479;22;20386;-90
2023/07/24 00:19:39;;;;;;;8.40;6.53;;;;;;;;;;13007199;22;20867;-90
2023/07/24 00:24:41;;;;;;;10.73;6.40;;;;;;;;;;12984605;22;20359;-89
2023/07/24 00:29:45;;;;;;;9.85;6.18;;;;;;;;;;12984686;22;20444;-90
2023/07/24 00:34:48;;;;;;;11.03;5.93;;;;;;;;;;12985509;22;20363;-90
2023/07/24 00:39:50;;;;;;;9.27;6.05;;;;;;;;;;12985422;22;20444;-90
2023/07/24 00:44:54;;;;;;;11.40;5.60;;;;;;;;;;12986412;22;20370;-90
2023/07/24 00:49:57;;;;;;;8.40;5.93;;;;;;;;;;12983312;22;20452;-90
2023/07/24 00:55:00;;;;;;;8.15;5.78;;;;;;;;;;12981521;22;20358;-89
2023/07/24 01:00:04;;;;;;;9.10;5.97;;;;;;;;;;12981744;22;20363;-90
2023/07/24 01:05:07;;;;;;;11.80;6.73;;;;;;;;;;12982754;22;20397;-90
2023/07/24 01:10:10;;;;;;;8.63;6.10;;;;;;;;;;12983258;22;20409;-90
2023/07/24 01:15:20;;;;;;;10.00;6.73;;;;;;;;;;12980967;22;20354;-89
2023/07/24 01:20:27;;;;;;;9.13;6.03;;;;;;;;;;12981725;22;20359;-89
2023/07/24 01:25:35;;;;;;;8.73;6.00;;;;;;;;;;12982369;22;20416;-90
2023/07/24 01:30:39;;;;;;;8.93;6.13;;;;;;;;;;13003192;22;20897;-90
2023/07/24 01:35:44;;;;;;;11.40;6.30;;;;;;;;;;12983100;22;20429;-89
2023/07/24 01:40:46;;;;;;;9.20;6.20;;;;;;;;;;12981774;22;20417;-89
2023/07/24 01:45:50;;;;;;;12.77;6.43;;;;;;;;;;12981323;22;20428;-89
2023/07/24 01:50:52;;;;;;;10.57;6.57;;;;;;;;;;12981686;22;20424;-90
2023/07/24 01:55:54;;;;;;;11.43;6.40;;;;;;;;;;12981772;22;20401;-90
2023/07/24 02:00:58;;;;;;;9.43;5.93;;;;;;;;;;12982211;22;20397;-91
2023/07/24 02:06:00;;;;;;;9.82;6.30;;;;;;;;;;12982025;22;20397;-90
2023/07/24 02:11:03;;;;;;;10.52;6.60;;;;;;;;;;13003774;22;20454;-89
2023/07/24 02:16:06;;;;;;;10.47;7.10;;;;;;;;;;12981303;22;20358;-89
2023/07/24 02:21:09;;;;;;;9.13;6.57;;;;;;;;;;13003710;22;20375;-90
2023/07/24 02:26:11;;;;;;;10.30;6.57;;;;;;;;;;13002101;22;20400;-90
2023/07/24 02:31:15;;;;;;;10.40;6.10;;;;;;;;;;12983554;22;20420;-90
2023/07/24 02:36:18;;;;;;;11.57;6.20;;;;;;;;;;12985219;22;20428;-89
2023/07/24 02:41:20;;;;;;;11.43;6.67;;;;;;;;;;12985346;22;20686;-90
2023/07/24 02:46:24;;;;;;;10.30;6.50;;;;;;;;;;12985044;22;20733;-90
2023/07/24 02:51:27;;;;;;;8.93;5.90;;;;;;;;;;12985107;22;20367;-90
2023/07/24 02:56:29;;;;;;;9.18;6.07;;;;;;;;;;12985336;22;20445;-90
2023/07/24 03:01:33;;;;;;;9.63;6.43;;;;;;;;;;13007082;22;20371;-89
2023/07/24 03:06:35;;;;;;;10.20;6.80;;;;;;;;;;12985361;22;20487;-89
2023/07/24 03:11:38;;;;;;;10.15;6.70;;;;;;;;;;12984800;22;20831;-90
2023/07/24 03:16:41;;;;;;;11.75;7.90;;;;;;;;;;13005706;22;20366;-89
2023/07/24 03:21:44;;;;;;;11.02;7.45;;;;;;;;;;12984540;22;20359;-89
2023/07/24 03:26:46;;;;;;;9.57;6.72;;;;;;;;;;12984000;22;20375;-90
2023/07/24 03:31:50;;;;;;;14.00;8.23;;;;;;;;;;12983893;22;20819;-90
2023/07/24 03:36:52;;;;;;;11.18;6.93;;;;;;;;;;12983702;22;20363;-90
2023/07/24 03:41:54;;;;;;;9.68;6.40;;;;;;;;;;12984225;22;20367;-90
2023/07/24 03:46:58;;;;;;;10.70;6.93;;;;;;;;;;13005261;22;20420;-90
2023/07/24 03:52:00;;;;;;;11.50;6.82;;;;;;;;;;12983305;22;20363;-90
2023/07/24 03:57:03;;;;;;;12.00;6.43;;;;;;;;;;12983414;22;20367;-89
2023/07/24 04:02:07;;;;;;;11.45;7.05;;;;;;;;;;12984042;22;20367;-89
2023/07/24 04:07:09;;;;;;;10.27;7.32;;;;;;;;;;12983458;22;20371;-89
2023/07/24 04:12:11;;;;;;;10.38;7.97;;;;;;;;;;12982652;22;20405;-90
2023/07/24 04:17:15;;;;;;;11.80;8.00;;;;;;;;;;12983873;22;20366;-89
2023/07/24 04:22:17;;;;;;;12.07;8.57;;;;;;;;;;12984335;22;20358;-89
2023/07/24 04:27:20;;;;;;;14.93;8.90;;;;;;;;;;12982185;22;20696;-90
2023/07/24 04:32:23;;;;;;;12.32;7.70;;;;;;;;;;13005050;22;20389;-90
2023/07/24 04:37:26;;;;;;;14.40;8.00;;;;;;;;;;12980143;22;20687;-90
2023/07/24 04:42:28;;;;;;;14.40;8.13;;;;;;;;;;12980555;22;20367;-90
2023/07/24 04:47:32;;;;;;;11.53;7.50;;;;;;;;;;12980325;22;20497;-90
2023/07/24 04:52:34;;;;;;;9.80;6.65;;;;;;;;;;12980448;22;20406;-91
2023/07/24 04:57:36;;;;;;;12.52;7.30;;;;;;;;;;12982717;22;20421;-90
2023/07/24 05:02:40;;;;;;;10.27;6.10;;;;;;;;;;12982594;22;20363;-90
2023/07/24 05:07:42;;;;;;;12.10;6.78;;;;;;;;;;13004918;22;20379;-90
2023/07/24 05:12:45;;;;;;;9.80;7.07;;;;;;;;;;12981525;22;20358;-91
2023/07/24 05:17:49;;;;;;;9.75;7.63;;;;;;;;;;12981235;22;20405;-90
2023/07/24 05:22:51;;;;;;;10.90;7.20;;;;;;;;;;13004573;22;20738;-90
2023/07/24 05:27:54;;;;;;;9.90;6.65;;;;;;;;;;12981826;22;20382;-90
2023/07/24 05:32:57;;;;;;;12.70;7.33;;;;;;;;;;12989193;22;20363;-89
2023/07/24 05:38:00;;;;;;;11.75;6.97;;;;;;;;;;12981210;22;20363;-89
2023/07/24 05:43:03;;;;;;;12.88;7.22;;;;;;;;;;12982256;22;20420;-90
2023/07/24 05:48:07;;;;;;;12.50;6.93;;;;;;;;;;12972723;22;20432;-91
2023/07/24 05:53:09;;;;;;;13.63;7.77;;;;;;;;;;12971569;22;20366;-90
2023/07/24 05:58:12;;;;;;;10.00;6.68;;;;;;;;;;12970485;22;20360;-89
2023/07/24 06:03:15;;;;;;;12.23;7.40;;;;;;;;;;12980003;22;20359;-91
2023/07/24 06:08:18;;;;;;;10.77;7.23;;;;;;;;;;13003481;22;20846;-90
2023/07/24 06:13:20;;;;;;;12.02;6.95;;;;;;;;;;12981496;22;20389;-91
2023/07/24 06:18:24;;;;;;;11.45;7.65;;;;;;;;;;12982250;22;20459;-91
2023/07/24 06:23:26;;;;;;;12.05;7.40;;;;;;;;;;12982550;22;20362;-91
2023/07/24 06:28:29;;;;;;;10.13;6.22;;;;;;;;;;12982721;22;20378;-91
2023/07/24 06:33:33;;;;;;;10.27;6.15;;;;;;;;;;12984349;22;20405;-91
2023/07/24 06:38:35;;;;;;;10.87;6.33;;;;;;;;;;12984103;22;20412;-90
2023/07/24 06:43:38;;;;;;;10.80;5.77;;;;;;;;;;12985671;22;20366;-91
2023/07/24 06:48:41;;;;;;;9.90;5.72;;;;;;;;;;13007393;22;20374;-91
2023/07/24 06:53:43;;;;;;;8.82;6.05;;;;;;;;;;12985484;22;20424;-92
2023/07/24 06:58:46;;;;;;;9.10;5.70;;;;;;;;;;12984997;22;20359;-90
2023/07/24 07:03:49;;;;;;;7.57;5.40;;;;;;;;;;12985094;22;20371;-91
2023/07/24 07:08:52;;;;;;;10.02;6.35;;;;;;;;;;12984574;22;20382;-91
2023/07/24 07:13:54;;;;;;;10.93;6.00;;;;;;;;;;12983575;22;20371;-90
2023/07/24 07:18:58;;;;;;;10.43;6.20;;;;;;;;;;12984582;22;20362;-91
2023/07/24 07:24:00;;;;;;;10.23;5.75;;;;;;;;;;12984090;22;20359;-91
2023/07/24 07:29:02;;;;;;;9.00;5.90;;;;;;;;;;12987573;22;20374;-91
2023/07/24 07:34:06;;;;;;;12.70;5.90;;;;;;;;;;12985124;22;20366;-88
2023/07/24 07:39:09;;;;;;;10.05;6.25;;;;;;;;;;12985725;22;20410;-90
2023/07/24 07:44:11;;;;;;;14.00;6.22;;;;;;;;;;12982923;22;20418;-91
2023/07/24 07:49:15;;;;;;;11.02;5.57;;;;;;;;;;12987868;22;20386;-91
2023/07/24 07:54:17;;;;;;;9.40;5.63;;;;;;;;;;12997155;22;20363;-91
2023/07/24 07:59:19;;;;;;;10.48;5.70;;;;;;;;;;12983936;22;20529;-91
2023/07/24 08:04:23;;;;;;;10.10;5.97;;;;;;;;;;13004883;22;20366;-91
2023/07/24 08:09:25;;;;;;;8.32;5.60;;;;;;;;;;12983861;22;20378;-90
2023/07/24 08:14:28;;;;;;;8.43;5.53;;;;;;;;;;12982852;22;20363;-91
2023/07/24 08:19:33;;;;;;;12.15;6.13;;;;;;;;;;12984155;22;20432;-91
2023/07/24 08:24:36;;;;;;;10.05;5.60;;;;;;;;;;12983075;22;20416;-92
2023/07/24 08:29:38;;;;;;;11.53;5.80;;;;;;;;;;12983376;22;20409;-92
2023/07/24 08:34:42;;;;;;;13.30;6.28;;;;;;;;;;12982645;22;20389;-91
2023/07/24 08:39:44;;;;;;;10.75;5.70;;;;;;;;;;12983001;22;20371;-91
2023/07/24 08:44:46;;;;;;;9.75;5.90;;;;;;;;;;12983409;22;20374;-91
2023/07/24 08:49:52;;;;;;;9.90;5.40;;;;;;;;;;12981128;22;20378;-91
2023/07/24 08:54:57;;;;;;;10.88;5.63;;;;;;;;;;12982348;22;20389;-90
2023/07/24 09:00:04;;;;;;;9.00;5.70;;;;;;;;;;12981246;22;20825;-91
2023/07/24 09:05:08;;;;;;;9.43;5.55;;;;;;;;;;12982985;22;20424;-89
2023/07/24 09:10:11;;;;;;;10.73;5.85;;;;;;;;;;12953880;22;20383;-92
2023/07/24 09:15:13;;;;;;;10.07;5.87;;;;;;;;;;12974708;22;20911;-87
2023/07/24 09:20:17;;;;;;;9.37;5.50;;;;;;;;;;12977710;22;20397;-90
2023/07/24 09:25:30;;;;;;;10.85;5.75;;;;;;;;;;12982367;22;20362;-91
2023/07/24 09:30:32;;;;;;;9.63;5.35;;;;;;;;;;12987617;22;20409;-91
2023/07/24 09:35:36;;;;;;;9.07;5.80;;;;;;;;;;12988580;22;20382;-91
2023/07/24 09:40:41;;;;;;;11.10;5.87;;;;;;;;;;12985924;22;20355;-90
2023/07/24 09:45:44;;;;;;;9.40;5.72;;;;;;;;;;12988467;22;20998;-90
2023/07/24 09:50:49;;;;;;;9.95;6.35;;;;;;;;;;12985032;22;20390;-91
2023/07/24 09:55:58;;;;;;;10.85;5.90;;;;;;;;;;12984558;22;20367;-91
2023/07/24 10:01:02;;;;;;;10.15;5.80;;;;;;;;;;12984088;22;20363;-91
2023/07/24 10:06:06;;;;;;;10.18;6.10;;;;;;;;;;12984632;22;20366;-92
2023/07/24 10:11:09;;;;;;;9.90;5.40;;;;;;;;;;12995256;22;20378;-92
2023/07/24 10:16:11;;;;;;;11.70;6.20;;;;;;;;;;12985506;22;20390;-91
2023/07/24 10:21:15;;;;;;;10.77;5.60;;;;;;;;;;12983354;22;20363;-92
2023/07/24 10:26:25;;;;;;;11.40;6.30;;;;;;;;;;12985116;22;20374;-90
2023/07/24 10:31:28;;;;;;;8.65;5.43;;;;;;;;;;12958248;22;20378;-91
2023/07/24 10:36:36;;;;;;;8.13;5.80;;;;;;;;;;12983875;22;20358;-91
2023/07/24 10:41:39;;;;;;;9.27;6.10;;;;;;;;;;12984092;22;20367;-91
2023/07/24 10:46:43;;;;;;;11.68;5.50;;;;;;;;;;12979313;22;20359;-92
2023/07/24 10:51:46;;;;;;;9.70;5.63;;;;;;;;;;12975557;22;20438;-91
2023/07/24 10:56:49;;;;;;;11.40;5.75;;;;;;;;;;12983446;22;20478;-92
2023/07/24 11:01:51;;;;;;;11.40;6.00;;;;;;;;;;12975396;22;20516;-91
2023/07/24 11:06:57;;;;;;;10.27;5.90;;;;;;;;;;12976044;22;20506;-91
2023/07/24 11:11:59;;;;;;;12.18;5.70;;;;;;;;;;12975656;22;20387;-91
2023/07/24 11:17:02;;;;;;;10.15;5.85;;;;;;;;;;12975559;22;20440;-91
2023/07/24 11:22:05;;;;;;;10.55;6.15;;;;;;;;;;12976253;22;20563;-91
2023/07/24 11:27:13;;;;;;;9.82;5.68;;;;;;;;;;12974828;22;20734;-92
2023/07/24 11:32:20;;;;;;;8.65;5.32;;;;;;;;;;12948663;22;20863;-91
2023/07/24 11:37:24;;;;;;;8.07;5.40;;;;;;;;;;12974563;22;20761;-91
2023/07/24 11:42:27;;;;;;;8.60;5.40;;;;;;;;;;12974702;22;20404;-90
2023/07/24 11:47:30;;;;;;;8.40;5.70;;;;;;;;;;12977160;22;20371;-91
2023/07/24 11:52:43;;;;;;;10.10;5.72;;;;;;;;;;12977209;22;20379;-92
2023/07/24 11:57:56;;;;;;;9.67;5.70;;;;;;;;;;12979508;22;20424;-91
2023/07/24 12:03:01;;;;;;;11.75;5.82;;;;;;;;;;12981721;22;20896;-90
2023/07/24 12:08:05;;;;;;;9.57;5.63;;;;;;;;;;12980960;22;20703;-90
2023/07/24 12:13:08;;;;;;;10.25;5.90;;;;;;;;;;12981768;22;20379;-91
2023/07/24 12:18:10;;;;;;;9.90;6.32;;;;;;;;;;12982536;22;20363;-91
2023/07/24 12:23:14;;;;;;;9.85;5.63;;;;;;;;;;13004396;22;20834;-91
2023/07/24 12:28:16;;;;;;;8.83;5.27;;;;;;;;;;12983793;22;20363;-91
2023/07/24 12:33:23;;;;;;;10.23;6.18;;;;;;;;;;12989484;22;20379;-91
2023/07/24 12:38:26;;;;;;;11.88;5.95;;;;;;;;;;12981912;22;20424;-88
2023/07/24 12:43:29;;;;;;;8.63;5.50;;;;;;;;;;12980201;22;20393;-91
2023/07/24 12:48:32;;;;;;;9.95;5.78;;;;;;;;;;12981211;22;20437;-91
2023/07/24 12:53:35;;;;;;;12.13;5.97;;;;;;;;;;12979851;22;20378;-91
2023/07/24 12:58:38;;;;;;;9.27;6.03;;;;;;;;;;12980304;22;20359;-91
2023/07/24 13:03:40;;;;;;;8.68;5.30;;;;;;;;;;12980536;22;20370;-91
2023/07/24 13:08:44;;;;;;;7.13;4.93;;;;;;;;;;12979903;22;20428;-91
2023/07/24 13:13:49;;;;;;;9.18;5.30;;;;;;;;;;12981458;22;20413;-91
2023/07/24 13:18:52;;;;;;;7.80;4.72;;;;;;;;;;13000691;22;20362;-87
2023/07/24 13:23:56;;;;;;;9.85;5.28;;;;;;;;;;12980519;22;20362;-90
2023/07/24 13:28:58;;;;;;;8.38;4.95;;;;;;;;;;12981796;22;20363;-91
2023/07/24 13:34:01;;;;;;;7.78;5.22;;;;;;;;;;12980890;22;20378;-91
2023/07/24 13:39:04;;;;;;;10.40;5.68;;;;;;;;;;12978004;22;20359;-89
2023/07/24 13:44:11;;;;;;;12.63;6.15;;;;;;;;;;12980003;22;20664;-89
2023/07/24 13:49:13;;;;;;;11.27;5.55;;;;;;;;;;12978029;22;20425;-89
2023/07/24 13:54:17;;;;;;;11.43;6.15;;;;;;;;;;12970473;22;20409;-89
2023/07/24 13:59:19;;;;;;;12.03;6.13;;;;;;;;;;12967043;22;20416;-89
2023/07/24 14:04:22;;;;;;;9.30;6.07;;;;;;;;;;12969707;22;20420;-89
2023/07/24 14:09:26;;;;;;;9.73;5.70;;;;;;;;;;12971581;22;21049;-88
2023/07/24 14:14:28;;;;;;;12.15;5.78;;;;;;;;;;12970659;22;20405;-90
2023/07/24 14:19:31;;;;;;;12.52;7.40;;;;;;;;;;12976618;22;20835;-90
2023/07/24 14:24:35;;;;;;;13.37;8.87;;;;;;;;;;12976988;22;20409;-89
2023/07/24 14:29:38;;;;;;;14.52;8.55;;;;;;;;;;12976808;22;20378;-90
2023/07/24 14:34:40;;;;;;;12.90;8.63;;;;;;;;;;12977443;22;20408;-90
2023/07/24 14:39:44;;;;;;;12.02;8.07;;;;;;;;;;12977003;22;20445;-89
2023/07/24 14:44:47;;;;;;;14.43;8.02;;;;;;;;;;12976713;22;20445;-90
2023/07/24 14:49:49;;;;;;;13.88;7.80;;;;;;;;;;12995348;22;20374;-89
2023/07/24 14:54:53;;;;;;;11.20;8.23;;;;;;;;;;12984875;22;20393;-90
2023/07/24 14:59:55;;;;;;;10.57;7.97;;;;;;;;;;12985435;22;20416;-88
2023/07/24 15:04:57;;;;;;;13.10;7.18;;;;;;;;;;13006061;22;20908;-90
2023/07/24 15:10:01;;;;;;;12.38;7.50;;;;;;;;;;12985431;22;20378;-90
2023/07/24 15:15:05;;;;;;;12.35;7.72;;;;;;;;;;12987112;22;20451;-89
2023/07/24 15:20:08;;;;;;;11.60;7.30;;;;;;;;;;12986403;22;20374;-88
2023/07/24 15:25:12;;;;;;;10.98;7.10;;;;;;;;;;12987621;22;20379;-89
2023/07/24 15:30:15;;;;;;;10.13;6.70;;;;;;;;;;12984130;22;20397;-88
2023/07/24 15:35:17;;;;;;;11.57;6.37;;;;;;;;;;12985805;22;20823;-90
2023/07/24 15:40:21;;;;;;;11.00;6.80;;;;;;;;;;13007335;22;20366;-89
2023/07/24 15:45:23;;;;;;;10.40;6.95;;;;;;;;;;12983087;22;20433;-90
2023/07/24 15:50:26;;;;;;;11.07;6.38;;;;;;;;;;12981962;22;20409;-90
2023/07/24 15:55:29;;;;;;;11.10;6.57;;;;;;;;;;12982170;22;20397;-91
2023/07/24 16:00:32;;;;;;;9.60;6.30;;;;;;;;;;12980668;22;20370;-90
2023/07/24 16:05:34;;;;;;;10.57;7.03;;;;;;;;;;12974914;22;20383;-91
2023/07/24 16:10:38;;;;;;;9.97;6.07;;;;;;;;;;12993715;22;20437;-90
2023/07/24 16:15:40;;;;;;;11.85;6.40;;;;;;;;;;12971980;22;20355;-90
2023/07/24 16:20:43;;;;;;;11.75;6.80;;;;;;;;;;12974341;22;20401;-90
2023/07/24 16:25:47;;;;;;;11.40;6.60;;;;;;;;;;12973948;22;20408;-91
2023/07/24 16:30:49;;;;;;;12.87;7.33;;;;;;;;;;12973169;22;20391;-90
2023/07/24 16:35:52;;;;;;;10.90;6.72;;;;;;;;;;12990232;22;20470;-89
2023/07/24 16:40:56;;;;;;;10.10;6.43;;;;;;;;;;12973268;22;20374;-89
2023/07/24 16:45:58;;;;;;;8.27;5.93;;;;;;;;;;12977037;22;20519;-91
2023/07/24 16:51:00;;;;;;;10.35;6.38;;;;;;;;;;12973464;22;20375;-90
2023/07/24 16:56:04;;;;;;;10.15;6.05;;;;;;;;;;12977107;22;21101;-91
2023/07/24 17:01:06;;;;;;;10.55;6.70;;;;;;;;;;12977623;22;20375;-90
2023/07/24 17:06:09;;;;;;;10.00;6.20;;;;;;;;;;12980067;22;20370;-91
2023/07/24 17:11:12;;;;;;;9.75;5.85;;;;;;;;;;12983472;22;20386;-92
2023/07/24 17:16:15;;;;;;;11.73;5.93;;;;;;;;;;12979804;22;20363;-93
2023/07/24 17:21:17;;;;;;;9.27;5.67;;;;;;;;;;12972236;22;20491;-87
2023/07/24 17:26:21;;;;;;;12.18;6.20;;;;;;;;;;12946595;22;20374;-88
2023/07/24 17:31:23;;;;;;;11.98;6.15;;;;;;;;;;12978311;22;20379;-86
2023/07/24 17:36:26;;;;;;;10.67;5.63;;;;;;;;;;12970746;22;20420;-84
2023/07/24 17:41:30;;;;;;;10.05;6.05;;;;;;;;;;12973573;22;20371;-88
2023/07/24 17:46:33;;;;;;;11.18;6.45;;;;;;;;;;12973888;22;20492;-89
2023/07/24 17:51:35;;;;;;;11.90;6.25;;;;;;;;;;12974741;22;20890;-88
2023/07/24 17:56:39;;;;;;;10.82;5.97;;;;;;;;;;12975548;22;20440;-88
2023/07/24 18:01:43;;;;;;;11.77;7.00;;;;;;;;;;12978378;22;20366;-88
2023/07/24 18:06:47;;;;;;;11.27;6.47;;;;;;;;;;12978002;22;20830;-88
2023/07/24 18:11:50;;;;;;;10.63;6.00;;;;;;;;;;12972802;22;20650;-87
2023/07/24 18:16:55;;;;;;;11.95;6.38;;;;;;;;;;12973880;22;20363;-87
2023/07/24 18:21:57;;;;;;;9.75;6.40;;;;;;;;;;12975596;22;20404;-87
2023/07/24 18:27:02;;;;;;;11.77;6.47;;;;;;;;;;12971733;22;20433;-86
2023/07/24 18:32:06;;;;;;;9.90;6.47;;;;;;;;;;12973114;22;20405;-86
2023/07/24 18:37:08;;;;;;;11.13;6.68;;;;;;;;;;12970721;22;20374;-87
2023/07/24 18:42:12;;;;;;;10.90;7.33;;;;;;;;;;12971814;22;20374;-85
2023/07/24 18:47:15;;;;;;;11.25;6.93;;;;;;;;;;12969386;22;20408;-87
2023/07/24 18:52:17;;;;;;;10.80;6.60;;;;;;;;;;12966794;22;20390;-87
2023/07/24 18:57:21;;;;;;;10.43;7.10;;;;;;;;;;12966998;22;20375;-88
2023/07/24 19:02:23;;;;;;;13.55;7.30;;;;;;;;;;12964951;22;20374;-87
2023/07/24 19:07:25;;;;;;;15.13;7.47;;;;;;;;;;12964002;22;20436;-87
2023/07/24 19:12:29;;;;;;;14.63;7.70;;;;;;;;;;12963167;22;20881;-87
2023/07/24 19:17:32;;;;;;;12.40;7.40;;;;;;;;;;12965008;22;20405;-87
2023/07/24 19:22:35;;;;;;;10.17;6.60;;;;;;;;;;12967604;22;20822;-86
2023/07/24 19:27:38;;;;;;;12.98;7.30;;;;;;;;;;12967436;22;20421;-88
2023/07/24 19:32:41;;;;;;;12.40;7.00;;;;;;;;;;12968675;22;20386;-88
2023/07/24 19:37:43;;;;;;;12.70;7.13;;;;;;;;;;12967259;22;20371;-88
2023/07/24 19:42:47;;;;;;;10.63;6.57;;;;;;;;;;12966596;22;20646;-87
2023/07/24 19:47:49;;;;;;;10.17;5.70;;;;;;;;;;12966821;22;20852;-87
2023/07/24 19:52:52;;;;;;;10.00;5.88;;;;;;;;;;12980947;22;20390;-88
2023/07/24 19:57:55;;;;;;;9.13;5.13;;;;;;;;;;12966909;22;20375;-88
2023/07/24 20:02:58;;;;;;;6.90;4.37;;;;;;;;;;12968518;22;20419;-87
2023/07/24 20:08:00;;;;;;;6.70;3.90;;;;;;;;;;12970156;22;20374;-88
2023/07/24 20:13:04;;;;;;;7.05;3.58;;;;;;;;;;12969434;22;20378;-88
2023/07/24 20:18:06;;;;;;;5.63;3.10;;;;;;;;;;12970570;22;20435;-88
2023/07/24 20:23:09;;;;;;;5.55;3.03;;;;;;;;;;12968236;22;20417;-85
2023/07/24 20:28:13;;;;;;;7.07;4.03;;;;;;;;;;12968935;22;20495;-87
2023/07/24 20:33:16;;;;;;;8.80;5.40;;;;;;;;;;12968422;22;20487;-87
2023/07/24 20:38:23;;;;;;;9.05;5.35;;;;;;;;;;12971732;22;20378;-87
2023/07/24 20:43:29;;;;;;;6.00;3.38;;;;;;;;;;12970259;22;20382;-87
2023/07/24 20:48:32;;;;;;;4.80;2.30;;;;;;;;;;12967685;22;20448;-88
2023/07/24 20:53:34;;;;;;;4.90;2.90;;;;;;;;;;12966605;22;20432;-87
2023/07/24 20:58:38;;;;;;;4.32;2.00;;;;;;;;;;12968123;22;20424;-87
2023/07/24 21:03:40;;;;;;;2.40;1.10;;;;;;;;;;12968754;22;20370;-87
2023/07/24 21:08:43;;;;;;;3.30;1.10;;;;;;;;;;12969312;22;20378;-86
2023/07/24 21:13:49;;;;;;;2.25;1.15;;;;;;;;;;12966884;22;20421;-86
2023/07/24 21:18:52;;;;;;;2.88;1.58;;;;;;;;;;12966982;22;20370;-88
2023/07/24 21:23:55;;;;;;;4.10;1.80;;;;;;;;;;12967825;22;20362;-87
2023/07/24 21:28:58;;;;;;;4.00;1.77;;;;;;;;;;12969977;22;20378;-87
2023/07/24 21:34:01;;;;;;;5.50;1.88;;;;;;;;;;12964008;22;20473;-87
2023/07/24 21:39:03;;;;;;;4.07;1.77;;;;;;;;;;12964454;22;20378;-88
2023/07/24 21:44:07;;;;;;;3.97;1.70;;;;;;;;;;12967443;22;20437;-88
2023/07/24 21:49:09;;;;;;;6.00;2.07;;;;;;;;;;12977127;22;20371;-88
2023/07/24 21:54:12;;;;;;;5.22;2.03;;;;;;;;;;12979067;22;20921;-88
2023/07/24 21:59:15;;;;;;;5.05;2.20;;;;;;;;;;12979042;22;20363;-88
2023/07/24 22:04:19;;;;;;;6.60;2.00;;;;;;;;;;12977403;22;20374;-88
2023/07/24 22:09:21;;;;;;;4.27;2.00;;;;;;;;;;12951863;22;20812;-87
2023/07/24 22:14:26;;;;;;;4.78;2.42;;;;;;;;;;12978180;22;20754;-87
2023/07/24 22:19:28;;;;;;;6.22;2.13;;;;;;;;;;12978691;22;20738;-88
2023/07/24 22:24:32;;;;;;;5.43;2.38;;;;;;;;;;12978978;22;20363;-88
2023/07/24 22:29:36;;;;;;;4.53;2.03;;;;;;;;;;12981158;22;20358;-88
2023/07/24 22:34:38;;;;;;;9.57;3.10;;;;;;;;;;12982368;22;20375;-88
2023/07/24 22:39:40;;;;;;;7.10;2.50;;;;;;;;;;12981765;22;20374;-87
2023/07/24 22:44:44;;;;;;;4.32;2.10;;;;;;;;;;13002503;22;20359;-87
2023/07/24 22:49:47;;;;;;;6.28;2.28;;;;;;;;;;12983407;22;20425;-88
2023/07/24 22:54:49;;;;;;;4.13;1.80;;;;;;;;;;13003597;22;20378;-88
2023/07/24 22:59:53;;;;;;;4.43;1.98;;;;;;;;;;12980489;22;20359;-88
2023/07/24 23:04:55;;;;;;;5.50;2.00;;;;;;;;;;12982504;22;20362;-89
2023/07/24 23:09:58;;;;;;;4.00;1.98;;;;;;;;;;12982683;22;20378;-88
2023/07/24 23:15:02;;;;;;;7.07;2.20;;;;;;;;;;12982424;22;20382;-88
2023/07/24 23:20:05;;;;;;;5.87;2.30;;;;;;;;;;13004641;22;20416;-88
2023/07/24 23:25:08;;;;;;;6.10;2.40;;;;;;;;;;12980988;22;20734;-88
2023/07/24 23:30:12;;;;;;;5.55;2.38;;;;;;;;;;12954816;22;20846;-88
2023/07/24 23:35:15;;;;;;;5.78;2.45;;;;;;;;;;12979514;22;20411;-88
2023/07/24 23:40:17;;;;;;;5.30;2.20;;;;;;;;;;12980062;22;20435;-88
2023/07/24 23:45:21;;;;;;;4.55;2.00;;;;;;;;;;12981251;22;20378;-88
2023/07/24 23:50:23;;;;;;;5.05;2.08;;;;;;;;;;12981576;22;20846;-88
2023/07/24 23:55:26;;;;;;;4.45;2.20;;;;;;;;;;12980249;22;20379;-88
